Levittown, PR

5:34 AM AST on April 19, 2015 (GMT -0400)
Roosevelt Roads Ns | | Change Station
CLOSE
Current Station
Airport
Location: Roosevelt Roads,
Elevation: 39 ft
Nearby Weather Stations

Elev 39 ft 18.26 °N, 65.64 °W | Updated 41 minutes ago

Scattered Clouds
Scattered Clouds
78 °F
Feels Like 78 °F
N
9
Wind Variable Wind from ESE

Today
High -- | Low -- °F
--% Chance of Precip.
Yesterday
High -- | Low -- °F
Precip. -- in
6:05 AM 6:42 PM
New Moon, 1% visible
Pressure 30.01 in
Visibility 10.0 miles
Clouds Few 1900 ft
Few 2600 ft
Scattered Clouds 3400 ft
Dew Point 72 °F
Humidity 81%
Rainfall 0.00 in
Snow Depth Not available.
UV 0 out of 12
Pollen Not available.
Air Quality Not available.
Flu Activity Sporadic
METAR TJNR 190853Z AUTO 11008KT 10SM FEW019 FEW026 SCT034 26/22 A3001 RMK AO2 SLP163 T02560222 55004 $

More Conditions Fewer Conditions

Pressure 30.01 in
Visibility 10.0 miles
Clouds Few 1900 ft
Few 2600 ft
Scattered Clouds 3400 ft
Dew Point 72 °F
Humidity 81%
Rainfall 0.00 in
Snow Depth Not available.
UV 0 out of 12
Pollen Not available.
Air Quality Not available.
Flu Activity Sporadic
METAR TJNR 190853Z AUTO 11008KT 10SM FEW019 FEW026 SCT034 26/22 A3001 RMK AO2 SLP163 T02560222 55004 $

More Conditions Fewer Conditions

10-Day Weather Forecast

Almanac

Astronomy

Apr. 19, 2015 Rise Set
Actual Time
Civil Twilight
Nautical Twilight
Astronomical Twilight
Moon
Length of Visible Light
Length of Day
Tomorrow will be .
, % of the Moon is Illuminated

Today's Extremes

State Highs State Lows

Community

WunderPhotos

Upload Photos

1,814,753 photos uploaded!

WunderBlogs® & News

Nearby

Air Quality

  Air Quality AQ Index Pollutant
Not available.

Snow Depth

Station Depth Elevation

Earthquake Activity

City Distance Mag. Time & Date
Minimum magnitude displayed is 2.5.

Coastal Water Temperatures

Place Temperature

Stations

Nearby Weather Stations

Station Location Temp. Windchill Dew Point Humidity Wind Precip. Elev Updated Type